createdAt,value
2022-12-26T00:05:27.751Z,14.73
2022-12-26T00:07:54.443Z,7.18
2022-12-26T00:14:51.789Z,5.95
2022-12-26T00:17:38.758Z,10.35
2022-12-26T00:20:25.761Z,6.28
2022-12-26T00:31:28.647Z,6.78
2022-12-26T00:33:55.889Z,9.82
2022-12-26T00:40:53.625Z,10.48
2022-12-26T00:43:41.091Z,7.47
2022-12-26T00:50:34.386Z,5.97
2022-12-26T00:57:12.595Z,5.15
2022-12-26T01:00:40.133Z,9.52
2022-12-26T01:03:27.160Z,9.95
2022-12-26T01:10:25.127Z,10.23
2022-12-26T01:13:12.451Z,8.27
2022-12-26T01:15:39.150Z,8.13
2022-12-26T01:18:06.518Z,8.48
2022-12-26T01:20:33.490Z,12.88
2022-12-26T01:30:54.464Z,7.50
2022-12-26T01:34:13.849Z,7.38
2022-12-26T01:56:36.772Z,8.27
2022-12-26T01:59:28.592Z,8.02
2022-12-26T02:06:22.516Z,5.32
2022-12-26T02:22:00.806Z,6.68
2022-12-26T02:30:15.279Z,4.30
2022-12-26T02:33:11.002Z,9.35
2022-12-26T02:39:46.986Z,8.55
2022-12-26T02:55:17.550Z,5.18
2022-12-26T03:29:40.994Z,6.97
2022-12-26T03:36:35.268Z,13.40
2022-12-26T03:39:58.491Z,5.93
2022-12-26T03:43:32.032Z,7.78
2022-12-26T03:54:04.197Z,3.97
2022-12-26T03:57:00.323Z,4.85
2022-12-26T03:59:52.924Z,8.25
2022-12-26T04:02:40.998Z,3.20
2022-12-26T04:09:44.423Z,5.93
2022-12-26T04:12:36.572Z,2.08
2022-12-26T04:19:57.056Z,5.32
2022-12-26T04:23:07.504Z,3.83
2022-12-26T04:26:05.610Z,5.35
2022-12-26T04:29:22.619Z,5.65
2022-12-26T04:32:36.538Z,4.82
2022-12-26T04:35:53.302Z,5.40
2022-12-26T04:39:03.124Z,7.95
2022-12-26T04:42:10.078Z,4.82
2022-12-26T04:44:58.833Z,4.40
2022-12-26T04:47:34.898Z,4.97
2022-12-26T04:50:19.319Z,6.43
2022-12-26T04:53:01.296Z,1.52
2022-12-26T04:55:30.339Z,4.38
2022-12-26T04:57:57.672Z,4.57
2022-12-26T05:00:28.163Z,2.75
2022-12-26T05:03:19.014Z,1.20
2022-12-26T05:06:07.327Z,10.32
2022-12-26T05:12:24.389Z,6.50
2022-12-26T05:15:11.942Z,5.97
2022-12-26T05:18:37.978Z,6.03
2022-12-26T05:21:43.695Z,5.72
2022-12-26T05:28:37.374Z,4.97
2022-12-26T05:39:48.887Z,3.22
2022-12-26T05:42:15.497Z,1.08
2022-12-26T05:44:42.230Z,5.47
2022-12-26T05:47:08.873Z,3.88
2022-12-26T05:49:35.527Z,2.38
2022-12-26T05:52:02.366Z,7.47
2022-12-26T05:54:29.002Z,5.72
2022-12-26T05:56:55.643Z,3.50
2022-12-26T05:59:22.297Z,14.57
2022-12-26T06:01:49.107Z,4.28
2022-12-26T06:04:15.999Z,6.45
2022-12-26T06:06:42.621Z,3.97
2022-12-26T06:14:14.153Z,6.53
2022-12-26T06:16:40.926Z,1.27
2022-12-26T06:30:42.354Z,3.90
2022-12-26T06:33:29.303Z,6.03
2022-12-26T06:36:19.420Z,1.80
2022-12-26T06:38:46.314Z,4.60
2022-12-26T06:41:16.335Z,4.57
2022-12-26T06:44:03.433Z,3.63
2022-12-26T06:46:50.444Z,2.78
2022-12-26T06:49:17.153Z,3.40
2022-12-26T06:55:34.207Z,2.47
2022-12-26T06:58:00.864Z,10.23
2022-12-26T07:00:27.509Z,3.72
2022-12-26T07:03:10.717Z,1.80
2022-12-26T07:09:33.142Z,3.90
2022-12-26T07:12:00.374Z,4.65
2022-12-26T07:26:19.225Z,6.53
2022-12-26T07:29:06.216Z,3.65
2022-12-26T07:33:09.820Z,1.33
2022-12-26T07:48:42.011Z,3.70
2022-12-26T07:51:08.759Z,2.80
2022-12-26T07:54:14.017Z,10.35
2022-12-26T07:56:41.609Z,6.47
2022-12-26T07:59:19.300Z,3.28
2022-12-26T08:01:46.169Z,4.65
2022-12-26T08:12:04.278Z,1.75
2022-12-26T08:19:04.870Z,6.97
2022-12-26T08:21:51.779Z,4.90
2022-12-26T08:31:59.091Z,3.03
2022-12-26T08:34:25.842Z,1.95
2022-12-26T08:36:52.563Z,2.63
2022-12-26T08:47:37.158Z,3.90
2022-12-26T08:51:19.807Z,2.78
2022-12-26T08:57:46.806Z,4.88
2022-12-26T09:03:59.511Z,2.28
2022-12-26T09:06:46.462Z,0.95
2022-12-26T09:13:23.862Z,3.83
2022-12-26T09:20:02.704Z,3.22
2022-12-26T09:26:30.803Z,3.38
2022-12-26T09:29:17.675Z,8.00
2022-12-26T09:32:05.236Z,2.63
2022-12-26T09:34:49.055Z,4.60
2022-12-26T09:37:15.740Z,3.50
2022-12-26T09:59:45.935Z,3.47
2022-12-26T10:02:33.163Z,3.45
2022-12-26T10:05:25.482Z,4.53
2022-12-26T10:23:22.663Z,3.75
2022-12-26T10:26:12.832Z,5.35
2022-12-26T10:29:02.324Z,7.63
2022-12-26T10:31:43.966Z,4.82
2022-12-26T10:34:31.258Z,2.80
2022-12-26T10:37:42.010Z,3.05
2022-12-26T10:44:30.061Z,3.03
2022-12-26T10:47:05.486Z,3.15
2022-12-26T10:49:32.224Z,1.63
2022-12-26T10:52:00.891Z,4.28
2022-12-26T10:54:30.088Z,4.22
2022-12-26T10:56:58.979Z,2.80
2022-12-26T11:03:19.566Z,3.70
2022-12-26T11:06:18.569Z,4.10
2022-12-26T11:16:10.084Z,8.65
2022-12-26T11:22:47.610Z,6.22
2022-12-26T11:33:50.015Z,7.43
2022-12-26T11:36:16.571Z,4.45
2022-12-26T11:43:07.505Z,8.43
2022-12-26T11:45:42.518Z,13.90
2022-12-26T11:49:09.607Z,13.98
2022-12-26T11:51:42.763Z,15.80
2022-12-26T11:54:34.299Z,6.00
2022-12-26T11:57:27.393Z,11.95
2022-12-26T12:08:53.470Z,10.60
2022-12-26T12:11:49.533Z,11.65
2022-12-26T12:18:29.658Z,4.82
2022-12-26T12:25:14.310Z,5.57
2022-12-26T12:31:46.479Z,5.45
2022-12-26T12:34:29.983Z,7.85
2022-12-26T12:37:30.442Z,5.38
2022-12-26T12:40:37.857Z,5.03
2022-12-26T12:43:22.234Z,7.13
2022-12-26T12:50:34.788Z,7.95
2022-12-26T13:01:01.406Z,2.60
2022-12-26T13:03:46.115Z,6.60
2022-12-26T13:11:03.483Z,3.47
2022-12-26T13:14:02.354Z,5.00
2022-12-26T13:25:22.343Z,5.35
2022-12-26T13:28:16.268Z,3.03
2022-12-26T13:31:03.838Z,3.15
2022-12-26T13:33:32.126Z,1.42
2022-12-26T13:51:53.085Z,3.55
2022-12-26T13:54:48.954Z,5.07
2022-12-26T13:57:45.787Z,4.00
2022-12-26T14:00:51.916Z,3.50
2022-12-26T14:03:48.948Z,8.50
2022-12-26T14:06:31.350Z,16.73
2022-12-26T14:09:23.836Z,21.58
2022-12-26T14:20:49.386Z,6.63
2022-12-26T14:24:32.354Z,9.02
2022-12-26T14:27:12.577Z,12.38
2022-12-26T14:33:38.432Z,7.15
2022-12-26T14:47:29.171Z,5.40
2022-12-26T14:54:32.420Z,1.48
2022-12-26T15:09:18.225Z,9.85
2022-12-26T15:12:20.112Z,10.73
2022-12-26T15:15:01.583Z,6.05
2022-12-26T15:17:50.591Z,7.63
2022-12-26T15:21:14.542Z,10.43
2022-12-26T15:23:44.146Z,18.83
2022-12-26T15:26:31.037Z,16.77
2022-12-26T15:29:17.526Z,10.23
2022-12-26T15:35:48.783Z,6.45
2022-12-26T15:38:34.015Z,10.68
2022-12-26T15:41:26.978Z,8.45
2022-12-26T15:44:39.949Z,12.85
2022-12-26T15:55:19.081Z,5.68
2022-12-26T15:58:50.238Z,5.68
2022-12-26T16:01:36.435Z,8.20
2022-12-26T16:04:07.965Z,5.72
2022-12-26T16:15:09.297Z,6.80
2022-12-26T16:21:47.875Z,16.48
2022-12-26T16:24:36.859Z,12.93
2022-12-26T16:40:14.987Z,12.18
2022-12-26T16:42:55.698Z,11.15
2022-12-26T16:45:23.817Z,10.75
2022-12-26T16:51:52.684Z,13.95
2022-12-26T16:58:27.449Z,9.88
2022-12-26T17:01:13.305Z,9.13
2022-12-26T17:12:07.925Z,9.63
2022-12-26T17:15:02.668Z,9.50
2022-12-26T17:21:32.864Z,8.05
2022-12-26T17:35:25.762Z,11.43
2022-12-26T17:42:33.494Z,13.38
2022-12-26T17:52:51.395Z,8.57
2022-12-26T17:55:38.360Z,10.98
2022-12-26T17:58:25.464Z,8.77
2022-12-26T18:01:32.561Z,7.43
2022-12-26T18:04:01.607Z,12.30
2022-12-26T18:10:24.537Z,17.30
2022-12-26T18:13:15.926Z,9.90
2022-12-26T18:23:53.917Z,20.10
2022-12-26T18:26:36.651Z,14.65
2022-12-26T18:29:03.328Z,8.77
2022-12-26T18:35:43.023Z,6.10
2022-12-26T18:40:47.237Z,6.32
2022-12-26T18:43:54.548Z,5.05
2022-12-26T18:46:26.400Z,8.95
2022-12-26T18:53:13.826Z,7.38
2022-12-26T18:55:40.554Z,9.15
2022-12-26T18:58:58.244Z,11.25
2022-12-26T19:01:43.855Z,8.98
2022-12-26T19:04:15.026Z,13.90
2022-12-26T19:06:41.811Z,12.90
2022-12-26T19:09:12.973Z,12.77
2022-12-26T19:11:58.915Z,10.57
2022-12-26T19:14:28.558Z,16.27
2022-12-26T19:16:55.141Z,13.05
2022-12-26T19:19:21.879Z,16.58
2022-12-26T19:21:48.498Z,13.23
2022-12-26T19:24:15.166Z,13.05
2022-12-26T19:26:41.903Z,10.98
2022-12-26T19:29:09.680Z,11.27
2022-12-26T19:31:36.363Z,11.95
2022-12-26T19:34:03.072Z,15.50
2022-12-26T19:36:29.737Z,12.70
2022-12-26T19:38:56.819Z,22.90
2022-12-26T19:41:23.536Z,23.27
2022-12-26T19:43:59.093Z,22.50
2022-12-26T19:46:26.979Z,17.25
2022-12-26T19:48:54.113Z,20.38
2022-12-26T19:51:21.718Z,20.85
2022-12-26T19:53:48.995Z,28.58
2022-12-26T19:56:18.542Z,21.40
2022-12-26T19:58:46.027Z,28.63
2022-12-26T20:01:19.837Z,24.05
2022-12-26T20:03:46.756Z,25.90
2022-12-26T20:06:22.145Z,27.33
2022-12-26T20:09:14.394Z,18.90
2022-12-26T20:11:44.646Z,13.60
2022-12-26T20:14:14.839Z,29.20
2022-12-26T20:19:28.500Z,18.30
2022-12-26T20:21:56.599Z,29.88
2022-12-26T20:24:23.375Z,28.60
2022-12-26T20:26:50.352Z,52.13
2022-12-26T20:29:17.398Z,33.65
2022-12-26T20:31:44.200Z,31.35
2022-12-26T20:34:11.819Z,27.02
2022-12-26T20:36:39.329Z,20.05
2022-12-26T20:39:11.582Z,22.05
2022-12-26T20:41:38.484Z,27.63
2022-12-26T20:44:05.354Z,26.35
2022-12-26T20:46:33.912Z,13.00
2022-12-26T20:49:09.970Z,16.38
2022-12-26T20:51:38.989Z,13.10
2022-12-26T20:54:11.030Z,14.25
2022-12-26T20:56:39.789Z,17.55
2022-12-26T20:59:19.723Z,15.63
2022-12-26T21:01:46.733Z,14.77
2022-12-26T21:04:20.297Z,13.93
2022-12-26T21:06:47.672Z,10.73
2022-12-26T21:09:14.659Z,15.77
2022-12-26T21:11:42.704Z,19.30
2022-12-26T21:14:16.575Z,16.25
2022-12-26T21:16:55.199Z,9.93
2022-12-26T21:19:23.515Z,11.07
2022-12-26T21:22:04.200Z,10.48
2022-12-26T21:24:33.018Z,11.20
2022-12-26T21:27:00.026Z,10.40
2022-12-26T21:29:29.414Z,10.45
2022-12-26T21:31:57.210Z,8.60
2022-12-26T21:34:26.634Z,9.95
2022-12-26T21:37:20.224Z,10.75
2022-12-26T21:39:47.586Z,14.43
2022-12-26T21:42:14.306Z,8.50
2022-12-26T21:44:44.489Z,7.18
2022-12-26T21:47:12.352Z,9.48
2022-12-26T21:49:39.197Z,11.38
2022-12-26T21:52:06.957Z,9.52
2022-12-26T21:54:52.767Z,8.90
2022-12-26T21:57:58.354Z,11.68
2022-12-26T22:00:25.699Z,10.38
2022-12-26T22:03:11.009Z,8.38
2022-12-26T22:05:40.035Z,12.90
2022-12-26T22:08:26.996Z,10.75
2022-12-26T22:11:12.205Z,11.48
2022-12-26T22:13:42.284Z,18.13
2022-12-26T22:16:11.604Z,12.35
2022-12-26T22:18:46.076Z,12.53
2022-12-26T22:21:42.314Z,8.85
2022-12-26T22:24:10.873Z,10.45
2022-12-26T22:26:37.473Z,13.82
2022-12-26T22:29:04.124Z,17.88
2022-12-26T22:31:36.296Z,20.83
2022-12-26T22:34:16.964Z,23.92
2022-12-26T22:36:43.877Z,18.75
2022-12-26T22:39:27.376Z,16.92
2022-12-26T22:41:58.909Z,13.40
2022-12-26T22:45:19.257Z,10.45
2022-12-26T22:52:24.301Z,12.85
2022-12-26T22:54:59.279Z,9.13
2022-12-26T22:57:25.982Z,10.00
2022-12-26T23:00:09.767Z,9.75
2022-12-26T23:03:14.757Z,9.10
2022-12-26T23:05:42.582Z,15.07
2022-12-26T23:08:15.848Z,14.68
2022-12-26T23:10:43.094Z,9.32
2022-12-26T23:13:14.388Z,12.80
2022-12-26T23:16:01.412Z,11.80
2022-12-26T23:19:10.440Z,8.05
2022-12-26T23:21:39.011Z,10.77
2022-12-26T23:24:27.106Z,13.02
2022-12-26T23:26:56.489Z,13.32
2022-12-26T23:29:43.327Z,20.58
2022-12-26T23:32:10.782Z,13.68
2022-12-26T23:34:44.975Z,9.90
2022-12-26T23:37:12.422Z,15.75
2022-12-26T23:39:39.029Z,18.10
2022-12-26T23:42:08.337Z,12.48
2022-12-26T23:44:35.012Z,11.82
2022-12-26T23:47:01.966Z,11.18
2022-12-26T23:49:28.644Z,14.18
2022-12-26T23:51:55.293Z,12.35
2022-12-26T23:54:37.643Z,7.55
2022-12-26T23:57:04.341Z,11.45
2022-12-26T23:59:31.057Z,6.90
